Time;durP1;ratioP1;P1;durP2;ratioP2;P2;SDS_P1;SDS_P2;PMS_P1;PMS_P2;Temp;Humidity;BMP_temperature;BMP_pressure;BME280_temperature;BME280_humidity;BME280_pressure;Samples;Min_cycle;Max_cycle;Signal;HPM_P1;HPM_P2
2024/04/05 00:01:32;;;;;;;13.05;3.20;;;12.70;99.90;;;;;;5017101;28;20471;-88
2024/04/05 00:03:58;;;;;;;10.73;2.95;;;12.70;99.90;;;;;;4983579;28;20026;-87
2024/04/05 00:06:24;;;;;;;10.40;2.90;;;12.70;99.90;;;;;;4999738;28;20022;-88
2024/04/05 00:08:50;;;;;;;9.32;2.70;;;12.70;99.90;;;;;;5017504;28;20034;-87
2024/04/05 00:11:15;;;;;;;8.55;2.90;;;12.70;99.90;;;;;;4983717;28;20026;-88
2024/04/05 00:13:41;;;;;;;10.02;3.10;;;12.70;99.90;;;;;;5016979;28;20096;-87
2024/04/05 00:16:08;;;;;;;9.43;2.95;;;12.70;99.90;;;;;;5017619;28;20026;-87
2024/04/05 00:18:34;;;;;;;15.15;3.22;;;12.70;99.90;;;;;;4999571;28;20378;-88
2024/04/05 00:21:04;;;;;;;10.32;2.80;;;12.70;99.90;;;;;;5000134;28;20038;-87
2024/04/05 00:23:31;;;;;;;14.13;3.58;;;12.60;99.90;;;;;;4999705;28;20033;-87
2024/04/05 00:25:58;;;;;;;13.07;3.25;;;12.60;99.90;;;;;;5000732;28;20467;-87
2024/04/05 00:28:25;;;;;;;13.60;3.40;;;12.60;99.90;;;;;;5007575;28;20014;-85
2024/04/05 00:30:50;;;;;;;11.70;3.13;;;12.60;99.90;;;;;;5007698;28;20010;-87
2024/04/05 00:33:16;;;;;;;15.30;3.78;;;12.60;99.90;;;;;;5007594;28;20022;-87
2024/04/05 00:35:48;;;;;;;10.38;3.20;;;12.70;99.90;;;;;;5023083;28;20014;-87
2024/04/05 00:38:14;;;;;;;14.10;3.58;;;12.60;99.90;;;;;;5009736;28;20036;-87
2024/04/05 00:40:40;;;;;;;9.82;2.38;;;12.70;99.90;;;;;;5000384;28;20613;-87
2024/04/05 00:43:05;;;;;;;8.80;2.70;;;12.70;99.90;;;;;;4999941;28;20026;-87
2024/04/05 00:45:31;;;;;;;12.38;3.58;;;12.70;99.90;;;;;;4999838;28;20030;-86
2024/04/05 00:47:58;;;;;;;13.75;3.95;;;12.70;99.90;;;;;;4999931;28;20425;-88
2024/04/05 00:50:23;;;;;;;9.68;3.10;;;12.70;99.90;;;;;;4999928;28;20029;-87
2024/04/05 00:52:50;;;;;;;11.10;2.28;;;12.70;99.90;;;;;;4999510;28;20038;-87
2024/04/05 00:55:16;;;;;;;10.35;3.10;;;12.70;99.90;;;;;;4999252;28;20030;-87
2024/04/05 00:57:42;;;;;;;9.73;2.78;;;12.80;99.90;;;;;;4998841;28;20044;-88
2024/04/05 01:00:08;;;;;;;9.10;2.67;;;12.80;99.90;;;;;;4982675;28;20125;-87
2024/04/05 01:02:34;;;;;;;12.43;2.67;;;12.80;99.90;;;;;;4982794;28;20109;-87
2024/04/05 01:05:00;;;;;;;11.68;2.92;;;12.80;99.90;;;;;;4998973;28;20214;-87
2024/04/05 01:07:25;;;;;;;10.27;3.00;;;12.90;99.90;;;;;;4998855;28;20037;-87
2024/04/05 01:09:51;;;;;;;10.20;3.05;;;12.90;99.90;;;;;;4998921;28;20034;-87
2024/04/05 01:12:16;;;;;;;11.40;2.92;;;12.90;99.90;;;;;;4981604;28;20032;-87
2024/04/05 01:14:42;;;;;;;11.55;3.35;;;12.90;99.90;;;;;;4982255;28;20109;-86
2024/04/05 01:17:08;;;;;;;10.68;3.13;;;13.00;99.90;;;;;;4998673;28;20065;-86
2024/04/05 01:19:35;;;;;;;10.20;3.00;;;13.00;99.90;;;;;;5015817;28;20433;-87
2024/04/05 01:22:02;;;;;;;11.40;2.88;;;13.00;99.90;;;;;;4998612;28;20064;-88
2024/04/05 01:24:28;;;;;;;11.85;3.00;;;13.00;99.90;;;;;;4998741;28;20018;-89
2024/04/05 01:26:53;;;;;;;9.07;3.28;;;13.10;99.90;;;;;;4982326;28;20030;-88
2024/04/05 01:29:19;;;;;;;13.07;3.17;;;13.10;99.90;;;;;;4982205;28;20030;-88
2024/04/05 01:31:45;;;;;;;8.18;2.33;;;13.10;99.90;;;;;;4998686;28;20037;-88
2024/04/05 01:34:10;;;;;;;12.77;3.28;;;13.10;99.90;;;;;;4998477;28;20026;-88
2024/04/05 01:36:36;;;;;;;11.75;3.17;;;13.20;99.90;;;;;;4998503;28;20486;-88
2024/04/05 01:39:02;;;;;;;11.18;2.90;;;13.20;99.90;;;;;;4998339;28;20471;-89
2024/04/05 01:41:27;;;;;;;11.77;3.42;;;13.20;99.90;;;;;;4998466;28;20038;-88
2024/04/05 01:43:53;;;;;;;9.50;3.15;;;13.20;99.90;;;;;;5016066;28;20033;-88
2024/04/05 01:46:19;;;;;;;12.98;3.35;;;13.20;99.90;;;;;;4981967;28;20084;-86
2024/04/05 01:48:44;;;;;;;10.63;3.45;;;13.30;99.90;;;;;;4986999;28;20054;-88
2024/04/05 01:51:10;;;;;;;9.50;2.92;;;13.30;99.90;;;;;;4962597;28;20064;-88
2024/04/05 01:53:36;;;;;;;9.02;2.30;;;13.30;99.90;;;;;;4979068;28;20081;-88
2024/04/05 01:56:02;;;;;;;7.85;2.63;;;13.40;99.90;;;;;;4962819;28;20057;-89
2024/04/05 01:58:29;;;;;;;11.20;3.35;;;13.30;99.90;;;;;;4962910;28;20030;-88
2024/04/05 02:01:01;;;;;;;12.05;3.55;;;13.30;99.90;;;;;;4979689;28;20033;-86
2024/04/05 02:03:28;;;;;;;11.10;2.67;;;13.40;99.90;;;;;;4981354;28;20054;-89
2024/04/05 02:05:53;;;;;;;10.85;3.05;;;13.40;99.90;;;;;;4979966;28;20021;-88
2024/04/05 02:08:19;;;;;;;10.98;2.72;;;13.40;99.90;;;;;;4986326;28;20006;-88
2024/04/05 02:10:46;;;;;;;11.75;3.50;;;13.40;99.90;;;;;;5002425;28;20018;-86
2024/04/05 02:13:12;;;;;;;10.30;3.25;;;13.40;99.90;;;;;;5002560;28;20046;-88
2024/04/05 02:15:38;;;;;;;11.32;2.70;;;13.40;99.90;;;;;;4991788;28;20030;-88
2024/04/05 02:18:08;;;;;;;10.65;2.78;;;13.40;99.90;;;;;;4962484;28;20026;-89
2024/04/05 02:20:34;;;;;;;10.65;3.05;;;13.40;99.90;;;;;;4962844;28;20065;-83
2024/04/05 02:22:59;;;;;;;10.27;3.05;;;13.30;99.90;;;;;;4978440;28;20031;-89
2024/04/05 02:25:25;;;;;;;12.88;2.92;;;13.40;99.90;;;;;;4961823;28;20022;-88
2024/04/05 02:27:51;;;;;;;11.85;2.88;;;13.30;99.90;;;;;;4977995;28;20057;-88
2024/04/05 02:30:18;;;;;;;12.02;3.17;;;13.30;99.90;;;;;;4995371;28;20033;-89
2024/04/05 02:32:44;;;;;;;10.38;3.10;;;13.30;99.90;;;;;;4976984;28;20027;-86
2024/04/05 02:35:09;;;;;;;9.32;2.83;;;13.30;99.90;;;;;;4977653;28;20027;-87
2024/04/05 02:37:35;;;;;;;10.60;3.33;;;13.30;99.90;;;;;;4961419;28;20027;-86
2024/04/05 02:40:02;;;;;;;15.23;3.00;;;13.30;99.90;;;;;;4961586;28;20471;-87
2024/04/05 02:42:28;;;;;;;11.20;3.22;;;13.30;99.90;;;;;;4977785;28;20033;-88
2024/04/05 02:44:54;;;;;;;9.95;2.80;;;13.30;99.90;;;;;;4977447;28;20386;-89
2024/04/05 02:47:19;;;;;;;10.57;3.05;;;13.30;99.90;;;;;;4977848;28;20022;-87
2024/04/05 02:49:45;;;;;;;12.57;2.85;;;13.30;99.90;;;;;;4977834;28;20066;-88
2024/04/05 02:52:10;;;;;;;7.75;2.65;;;13.30;99.90;;;;;;4961450;28;20044;-88
2024/04/05 02:54:39;;;;;;;7.03;2.63;;;13.30;99.90;;;;;;4961783;28;20031;-87
2024/04/05 02:57:04;;;;;;;8.73;2.80;;;13.30;99.90;;;;;;4978040;28;20410;-87
2024/04/05 02:59:33;;;;;;;9.88;3.28;;;13.30;99.90;;;;;;4977987;28;20031;-87
2024/04/05 03:01:59;;;;;;;15.15;2.83;;;13.20;99.90;;;;;;4977559;28;20038;-88
2024/04/05 03:04:24;;;;;;;10.02;2.80;;;13.20;99.90;;;;;;4977608;28;20035;-88
2024/04/05 03:06:50;;;;;;;11.90;3.10;;;13.20;99.90;;;;;;4994969;28;20050;-88
2024/04/05 03:09:16;;;;;;;9.73;3.00;;;13.20;99.90;;;;;;4961312;28;20259;-88
2024/04/05 03:11:41;;;;;;;8.93;2.47;;;13.20;99.90;;;;;;4994868;28;20109;-89
2024/04/05 03:14:07;;;;;;;10.38;2.70;;;13.20;99.90;;;;;;4977585;28;20026;-88
2024/04/05 03:16:33;;;;;;;12.73;3.28;;;13.20;99.90;;;;;;4961535;28;20471;-88
2024/04/05 03:18:59;;;;;;;8.18;2.28;;;13.10;99.90;;;;;;4977241;28;20035;-88
2024/04/05 03:21:24;;;;;;;8.25;2.53;;;13.20;99.90;;;;;;4961769;28;20434;-87
2024/04/05 03:23:50;;;;;;;8.50;3.03;;;13.10;99.90;;;;;;4978075;28;20418;-88
2024/04/05 03:26:16;;;;;;;9.60;2.80;;;13.10;99.90;;;;;;4977856;28;20030;-87
2024/04/05 03:28:41;;;;;;;11.20;2.88;;;13.20;99.90;;;;;;4961404;28;20114;-86
2024/04/05 03:31:07;;;;;;;8.23;2.70;;;13.20;99.90;;;;;;4977724;28;20534;-87
2024/04/05 03:33:32;;;;;;;10.85;2.72;;;13.20;99.90;;;;;;4977854;28;20463;-88
2024/04/05 03:36:05;;;;;;;10.07;2.55;;;13.20;99.90;;;;;;4980827;28;20459;-88
2024/04/05 03:38:33;;;;;;;10.65;3.05;;;13.20;99.90;;;;;;4982760;28;20057;-88
2024/04/05 03:41:01;;;;;;;12.30;3.25;;;13.20;99.90;;;;;;4989782;28;20034;-90
2024/04/05 03:43:27;;;;;;;8.57;3.40;;;13.20;99.90;;;;;;5003194;28;20045;-90
2024/04/05 03:45:53;;;;;;;9.00;2.80;;;13.20;99.90;;;;;;4987399;28;20030;-90
2024/04/05 03:48:19;;;;;;;9.32;2.80;;;13.20;99.90;;;;;;5005829;28;20042;-90
2024/04/05 03:50:44;;;;;;;12.32;2.80;;;13.30;99.90;;;;;;4986197;28;20031;-84
2024/04/05 03:53:10;;;;;;;7.30;2.72;;;13.20;99.90;;;;;;4967886;28;20034;-90
2024/04/05 03:55:36;;;;;;;9.88;2.60;;;13.30;99.90;;;;;;4981415;28;20030;-90
2024/04/05 03:58:02;;;;;;;7.60;2.47;;;13.30;99.90;;;;;;4981567;28;20030;-90
2024/04/05 04:00:27;;;;;;;13.70;2.65;;;13.20;99.90;;;;;;4981256;28;20382;-90
2024/04/05 04:02:53;;;;;;;9.65;2.40;;;13.30;99.90;;;;;;4981822;28;20063;-89
2024/04/05 04:05:19;;;;;;;9.43;2.83;;;13.30;99.90;;;;;;4981428;28;20414;-90
2024/04/05 04:07:48;;;;;;;11.20;3.30;;;13.30;99.90;;;;;;4981149;28;20030;-90
2024/04/05 04:10:14;;;;;;;6.43;1.95;;;13.30;99.90;;;;;;4981829;28;20041;-92
2024/04/05 04:12:40;;;;;;;10.15;3.13;;;13.30;99.90;;;;;;4965909;28;20022;-90
2024/04/05 04:15:11;;;;;;;9.68;2.90;;;13.30;99.90;;;;;;4983030;28;20081;-91
2024/04/05 04:17:37;;;;;;;8.88;3.78;;;13.30;99.90;;;;;;4983627;28;20023;-92
2024/04/05 04:20:04;;;;;;;9.98;3.08;;;13.30;99.90;;;;;;4983192;28;20053;-92
2024/04/05 04:22:34;;;;;;;9.80;2.47;;;13.30;99.90;;;;;;4983535;28;20022;-91
2024/04/05 04:25:00;;;;;;;9.50;2.55;;;13.30;99.90;;;;;;4982365;28;20037;-92
2024/04/05 04:27:26;;;;;;;7.57;2.47;;;13.30;99.90;;;;;;4968716;28;20023;-92
2024/04/05 04:29:54;;;;;;;7.93;2.45;;;13.30;99.90;;;;;;4982742;28;20038;-89
2024/04/05 04:32:23;;;;;;;12.25;2.95;;;13.30;99.90;;;;;;4981881;28;20038;-91
2024/04/05 04:34:50;;;;;;;9.48;3.00;;;13.30;99.90;;;;;;4964869;28;20105;-90
2024/04/05 04:37:16;;;;;;;9.70;2.45;;;13.40;99.90;;;;;;4965409;28;20088;-91
2024/04/05 04:39:43;;;;;;;10.20;2.60;;;13.40;99.90;;;;;;4980872;28;20061;-90
2024/04/05 04:42:08;;;;;;;7.65;3.35;;;13.40;99.90;;;;;;4981025;28;20026;-90
2024/04/05 04:44:37;;;;;;;9.80;2.92;;;13.40;99.90;;;;;;4968418;28;20176;-92
2024/04/05 04:47:06;;;;;;;7.13;2.38;;;13.40;99.90;;;;;;4984198;28;20019;-93
2024/04/05 04:49:37;;;;;;;5.63;2.50;;;13.40;99.90;;;;;;4975339;28;20122;-93
2024/04/05 04:52:11;;;;;;;10.57;2.83;;;13.40;99.90;;;;;;4970048;28;20030;-91
2024/04/05 04:54:39;;;;;;;5.63;2.30;;;13.50;99.90;;;;;;4968206;28;20053;-94
2024/04/05 04:57:05;;;;;;;8.85;2.55;;;13.40;99.90;;;;;;4984986;28;20053;-92
2024/04/05 04:59:40;;;;;;;7.25;2.35;;;13.40;99.90;;;;;;4966321;28;20065;-94
2024/04/05 05:02:09;;;;;;;11.10;2.78;;;13.40;99.90;;;;;;4981315;28;20048;-93
2024/04/05 05:04:35;;;;;;;8.20;3.10;;;13.40;99.90;;;;;;4982341;28;20025;-92
2024/04/05 05:07:06;;;;;;;9.68;2.53;;;13.40;99.90;;;;;;4980650;28;20023;-93
2024/04/05 05:09:32;;;;;;;8.18;2.65;;;13.40;99.90;;;;;;4980738;28;20049;-92
2024/04/05 05:12:01;;;;;;;8.20;2.88;;;13.40;99.90;;;;;;4966394;28;20390;-93
2024/04/05 05:14:30;;;;;;;6.07;2.20;;;13.40;99.90;;;;;;4983815;28;20033;-92
2024/04/05 05:16:58;;;;;;;10.35;2.47;;;13.50;99.90;;;;;;4987314;28;20022;-92
2024/04/05 05:19:24;;;;;;;6.60;2.17;;;13.50;99.90;;;;;;4981171;28;20106;-93
2024/04/05 05:22:00;;;;;;;6.70;2.70;;;13.50;99.90;;;;;;4986595;28;20014;-94
2024/04/05 05:28:12;;;;;;;;;;;;;;;;;;;;;
2024/04/05 05:31:05;;;;;;;6.75;2.47;;;13.50;99.90;;;;;;5000491;28;20030;-93
2024/04/05 05:33:33;;;;;;;8.55;2.58;;;13.50;99.90;;;;;;4985719;28;20027;-93
2024/04/05 05:36:02;;;;;;;7.32;2.28;;;13.50;99.90;;;;;;4986746;28;20025;-92
2024/04/05 05:38:32;;;;;;;6.85;2.47;;;13.50;99.90;;;;;;4987879;28;20030;-91
2024/04/05 05:41:02;;;;;;;7.40;2.40;;;13.60;99.90;;;;;;4989077;28;20045;-90
2024/04/05 05:43:33;;;;;;;6.07;2.28;;;13.60;99.90;;;;;;4980382;28;20034;-94
2024/04/05 05:46:11;;;;;;;4.03;2.13;;;13.60;99.90;;;;;;4999002;28;20026;-87
2024/04/05 05:48:37;;;;;;;5.93;2.20;;;13.60;99.90;;;;;;4985047;28;20053;-92
2024/04/05 05:51:03;;;;;;;7.38;2.20;;;13.60;99.90;;;;;;5001725;28;20014;-88
2024/04/05 05:53:29;;;;;;;8.02;2.17;;;13.70;99.90;;;;;;5018555;28;20018;-93
2024/04/05 05:55:54;;;;;;;3.92;1.88;;;13.70;99.90;;;;;;5002271;28;20010;-94
2024/04/05 05:58:28;;;;;;;6.28;2.25;;;13.70;99.90;;;;;;5001860;28;20053;-92
2024/04/05 06:00:58;;;;;;;7.45;2.42;;;13.80;99.90;;;;;;5159336;23;20057;-90
2024/04/05 06:03:26;;;;;;;5.82;1.73;;;13.80;99.90;;;;;;5023131;28;20041;-93
2024/04/05 06:06:02;;;;;;;5.57;2.03;;;13.80;99.90;;;;;;5006816;28;20041;-93
2024/04/05 06:08:28;;;;;;;5.90;1.75;;;13.80;99.90;;;;;;5037902;28;20014;-93
2024/04/05 06:11:01;;;;;;;8.75;1.98;;;13.80;99.90;;;;;;5021157;28;20010;-92
2024/04/05 06:13:28;;;;;;;7.47;2.00;;;13.90;99.90;;;;;;5020708;28;20006;-92
2024/04/05 06:15:58;;;;;;;6.25;2.30;;;13.90;99.90;;;;;;5012610;28;20029;-93
2024/04/05 06:18:31;;;;;;;5.93;2.10;;;13.90;99.90;;;;;;5016128;28;20070;-92
2024/04/05 06:21:03;;;;;;;5.22;1.90;;;14.00;99.90;;;;;;4996105;28;20300;-93
2024/04/05 06:23:34;;;;;;;6.15;2.33;;;14.00;99.90;;;;;;4984301;28;20453;-94
2024/04/05 06:26:34;;;;;;;6.07;1.90;;;14.10;99.90;;;;;;5025382;28;20010;-92
2024/04/05 06:29:20;;;;;;;5.38;1.98;;;14.10;99.90;;;;;;4977143;28;20186;-93
2024/04/05 06:31:51;;;;;;;5.18;1.70;;;14.10;99.90;;;;;;5001364;28;20045;-93
2024/04/05 06:34:22;;;;;;;6.22;1.70;;;14.10;99.90;;;;;;5010670;28;20058;-92
2024/04/05 06:37:30;;;;;;;;;;;;;;;;;;;;;
2024/04/05 06:39:56;;;;;;;5.40;1.67;;;14.20;99.90;;;;;;5002271;28;20117;-93
2024/04/05 06:42:37;;;;;;;4.43;1.85;;;14.20;99.90;;;;;;5009074;28;20061;-93
2024/04/05 06:48:41;;;;;;;;;;;;;;;;;;;;;
2024/04/05 06:51:29;;;;;;;5.78;1.83;;;14.30;99.90;;;;;;5046614;28;20065;-94
2024/04/05 06:54:17;;;;;;;5.75;1.77;;;14.30;99.90;;;;;;5026250;28;20068;-94
2024/04/05 06:56:45;;;;;;;5.57;2.17;;;14.30;99.90;;;;;;5036916;28;20020;-94
2024/04/05 06:59:14;;;;;;;5.65;2.10;;;14.30;99.90;;;;;;5059133;28;20027;-89
2024/04/05 07:01:45;;;;;;;7.82;2.25;;;14.40;99.90;;;;;;5040960;28;20038;-94
2024/04/05 07:04:49;;;;;;;6.10;2.30;;;14.40;99.90;;;;;;5040029;28;20025;-90
2024/04/05 07:07:20;;;;;;;5.88;2.20;;;14.30;99.90;;;;;;5036414;28;20040;-94
2024/04/05 07:09:54;;;;;;;4.65;1.70;;;14.30;99.90;;;;;;5038888;28;20054;-94
2024/04/05 07:12:25;;;;;;;7.18;2.17;;;14.40;99.90;;;;;;5037206;28;20489;-94
2024/04/05 07:14:54;;;;;;;6.07;2.00;;;14.40;99.90;;;;;;5010231;28;20537;-94
2024/04/05 07:17:42;;;;;;;7.57;2.63;;;14.50;99.90;;;;;;5016456;28;20034;-93
2024/04/05 07:20:44;;;;;;;4.53;1.55;;;14.60;99.90;;;;;;5077384;23;20061;-94
2024/04/05 07:23:21;;;;;;;5.03;1.33;;;14.60;99.90;;;;;;5031049;28;20042;-94
2024/04/05 07:25:47;;;;;;;4.75;1.80;;;14.60;99.90;;;;;;5022507;28;20038;-94
2024/04/05 07:28:22;;;;;;;5.72;1.90;;;14.70;99.90;;;;;;5027715;28;20113;-92
2024/04/05 07:31:36;;;;;;;;;;;;;;;;;;;;;
2024/04/05 07:34:03;;;;;;;5.93;1.90;;;14.70;99.90;;;;;;4997810;28;20254;-93
2024/04/05 07:36:29;;;;;;;5.90;1.60;;;14.70;99.90;;;;;;5005053;28;20081;-94
2024/04/05 07:39:08;;;;;;;4.70;1.83;;;14.70;99.90;;;;;;5039522;28;20116;-93
2024/04/05 07:41:38;;;;;;;6.07;1.98;;;14.70;99.90;;;;;;5038369;28;20030;-94
2024/04/05 07:44:22;;;;;;;;;;;;;;;;;;;;;
2024/04/05 07:52:44;;;;;;;;;;;;;;;;;;;;;
2024/04/05 08:02:57;;;;;;;4.00;1.60;;;14.90;99.90;;;;;;5471069;22;20024;-85
2024/04/05 08:13:07;;;;;;;6.20;1.50;;;14.90;99.90;;;;;;5051301;28;20067;-93
2024/04/05 08:16:07;;;;;;;;;;;;;;;;;;;;;
2024/04/05 08:18:43;;;;;;;;;;;;;;;;;;;;;
2024/04/05 08:21:12;;;;;;;4.82;2.03;;;14.90;99.90;;;;;;5223066;23;20073;-93
2024/04/05 08:30:06;;;;;;;2.97;1.40;;;14.90;99.90;;;;;;1245913;23;20303;-88
2024/04/05 08:32:47;;;;;;;6.32;2.08;;;14.90;99.90;;;;;;5057530;28;20099;-93
2024/04/05 08:35:24;;;;;;;3.90;1.38;;;14.90;99.90;;;;;;5051049;28;20017;-93
2024/04/05 08:38:01;;;;;;;5.70;1.90;;;14.90;99.90;;;;;;5192341;23;20033;-92
2024/04/05 08:40:29;;;;;;;6.05;1.95;;;14.90;99.90;;;;;;5063218;28;20032;-88
2024/04/05 08:43:06;;;;;;;5.97;1.70;;;14.90;99.90;;;;;;5170085;23;20040;-93
2024/04/05 08:46:18;;;;;;;2.88;1.48;;;14.90;99.90;;;;;;5114284;23;20050;-89
2024/04/05 08:49:13;;;;;;;6.78;2.20;;;14.90;99.90;;;;;;5131529;23;20080;-93
2024/04/05 08:51:57;;;;;;;3.80;1.50;;;14.90;99.90;;;;;;5023796;28;20122;-92
2024/04/05 08:57:19;;;;;;;7.53;2.17;;;14.90;99.90;;;;;;5267214;22;20692;-93
2024/04/05 09:36:09;;;;;;;2.33;1.17;;;14.90;99.90;;;;;;5013294;28;20050;-93
2024/04/05 09:38:45;;;;;;;4.45;1.60;;;15.00;99.90;;;;;;5043343;23;20058;-92
2024/04/05 09:41:20;;;;;;;3.75;1.70;;;15.00;99.90;;;;;;4980255;28;20011;-93
2024/04/05 09:43:56;;;;;;;3.80;1.60;;;15.00;99.90;;;;;;4956786;29;20031;-93
2024/04/05 09:46:47;;;;;;;2.85;1.20;;;15.00;99.90;;;;;;5105033;23;20382;-94
2024/04/05 09:52:45;;;;;;;;;;;;;;;;;;;;;
2024/04/05 09:59:13;;;;;;;3.70;1.50;;;15.00;99.90;;;;;;5141207;23;20034;-94
2024/04/05 10:01:45;;;;;;;2.45;1.30;;;15.00;99.90;;;;;;5027657;28;20053;-93
2024/04/05 10:05:07;;;;;;;3.97;1.90;;;15.00;99.90;;;;;;5012013;28;20057;-94
2024/04/05 10:07:35;;;;;;;4.47;1.65;;;15.10;99.90;;;;;;4974838;28;20098;-94
2024/04/05 10:10:09;;;;;;;4.70;1.52;;;15.10;99.90;;;;;;5016233;28;20028;-94
2024/04/05 10:12:35;;;;;;;5.60;1.75;;;15.10;99.90;;;;;;5015608;28;20108;-94
2024/04/05 10:15:03;;;;;;;3.50;1.60;;;15.20;99.90;;;;;;5010875;28;20057;-94
2024/04/05 10:17:32;;;;;;;3.20;1.38;;;15.20;99.90;;;;;;5026608;28;20018;-92
2024/04/05 10:20:03;;;;;;;4.10;1.58;;;15.20;99.90;;;;;;5142890;23;20038;-87
2024/04/05 10:22:34;;;;;;;3.10;1.35;;;15.30;99.90;;;;;;5012765;28;20065;-85
2024/04/05 10:25:07;;;;;;;2.20;0.88;;;15.40;99.90;;;;;;4999438;28;20034;-92
2024/04/05 10:27:32;;;;;;;1.85;1.25;;;15.50;99.90;;;;;;4986645;28;20030;-86
2024/04/05 10:29:58;;;;;;;2.45;0.98;;;15.60;99.90;;;;;;4981724;28;20028;-89
2024/04/05 10:32:24;;;;;;;2.38;1.45;;;15.70;99.90;;;;;;4982461;28;20026;-91
2024/04/05 10:34:50;;;;;;;2.55;1.40;;;15.80;99.90;;;;;;4978242;28;20019;-89
2024/04/05 10:37:16;;;;;;;4.90;1.42;;;15.90;99.90;;;;;;4987713;28;20032;-92
2024/04/05 10:39:43;;;;;;;2.40;1.20;;;15.90;99.90;;;;;;4978198;28;20538;-91
2024/04/05 10:42:08;;;;;;;4.78;1.63;;;15.90;99.90;;;;;;4995382;28;20029;-92
2024/04/05 10:44:36;;;;;;;3.25;1.55;;;15.90;99.90;;;;;;4994595;28;20027;-91
2024/04/05 10:47:03;;;;;;;3.60;1.25;;;16.00;99.90;;;;;;4959521;28;20038;-89
2024/04/05 10:49:29;;;;;;;4.75;1.60;;;16.00;99.90;;;;;;4978056;28;20027;-90
2024/04/05 10:51:58;;;;;;;4.65;1.70;;;16.10;99.90;;;;;;4970426;28;20263;-91
2024/04/05 10:54:24;;;;;;;3.22;1.38;;;16.10;99.90;;;;;;4978160;28;20034;-90
2024/04/05 10:56:50;;;;;;;2.53;1.13;;;16.20;99.90;;;;;;4978167;28;20028;-89
2024/04/05 10:59:19;;;;;;;4.47;1.33;;;16.30;99.90;;;;;;4977650;28;20439;-89
2024/04/05 11:01:48;;;;;;;4.07;1.60;;;16.30;99.90;;;;;;4967976;28;20025;-91
2024/04/05 11:04:14;;;;;;;2.92;1.10;;;16.40;99.90;;;;;;4978211;28;20041;-90
2024/04/05 11:06:41;;;;;;;3.38;1.48;;;16.40;99.90;;;;;;4983275;28;20050;-90
2024/04/05 11:09:14;;;;;;;2.78;1.20;;;16.40;99.90;;;;;;4977475;28;20106;-91
2024/04/05 11:11:41;;;;;;;3.47;1.73;;;16.50;99.90;;;;;;4977607;28;20077;-90
2024/04/05 11:14:10;;;;;;;2.25;1.17;;;16.50;99.90;;;;;;4977935;28;20030;-91
2024/04/05 11:16:37;;;;;;;2.33;1.30;;;16.50;99.90;;;;;;4994880;28;20018;-92
2024/04/05 11:19:06;;;;;;;4.45;1.70;;;16.40;99.90;;;;;;4978115;28;20054;-90
2024/04/05 11:21:33;;;;;;;3.65;1.55;;;16.50;99.90;;;;;;4979363;28;20031;-90
2024/04/05 11:23:59;;;;;;;3.05;1.48;;;16.40;99.90;;;;;;4961731;28;20035;-92
2024/04/05 11:26:31;;;;;;;2.53;1.38;;;16.50;99.90;;;;;;4977727;28;20425;-91
2024/04/05 11:29:04;;;;;;;3.17;1.20;;;16.50;99.90;;;;;;4958467;28;20027;-90
2024/04/05 11:31:30;;;;;;;3.35;1.33;;;16.50;99.90;;;;;;4967182;28;20054;-90
2024/04/05 11:34:01;;;;;;;3.75;1.60;;;16.40;99.90;;;;;;4974638;28;20148;-91
2024/04/05 11:36:30;;;;;;;4.05;1.42;;;16.50;99.90;;;;;;4968498;28;20101;-92
2024/04/05 11:38:56;;;;;;;4.13;1.40;;;16.50;99.90;;;;;;4977395;28;20471;-92
2024/04/05 11:41:24;;;;;;;3.35;1.30;;;16.50;99.90;;;;;;4961387;28;20084;-91
2024/04/05 11:43:56;;;;;;;2.85;1.25;;;16.50;99.90;;;;;;4977407;28;20049;-92
2024/04/05 11:46:26;;;;;;;2.40;1.40;;;16.50;99.90;;;;;;4975916;28;20056;-92
2024/04/05 11:48:52;;;;;;;1.85;1.02;;;16.50;99.90;;;;;;4991496;28;20041;-92
2024/04/05 11:51:21;;;;;;;1.38;1.00;;;16.50;99.90;;;;;;4980276;28;20110;-91
2024/04/05 11:53:50;;;;;;;3.60;1.23;;;16.50;99.90;;;;;;4978199;28;20034;-92
2024/04/05 11:56:15;;;;;;;2.00;1.17;;;16.50;99.90;;;;;;4980021;28;20085;-92
2024/04/05 11:58:41;;;;;;;3.83;1.15;;;16.50;99.90;;;;;;4985715;28;20030;-92
2024/04/05 12:01:07;;;;;;;3.13;1.33;;;16.50;99.90;;;;;;5000077;28;20026;-91
2024/04/05 12:03:33;;;;;;;2.20;0.80;;;16.50;99.90;;;;;;4998323;28;20022;-93
2024/04/05 12:06:01;;;;;;;3.67;1.15;;;16.40;99.90;;;;;;4999036;28;20022;-95
2024/04/05 12:08:29;;;;;;;3.05;1.20;;;16.50;99.90;;;;;;4978557;28;20054;-94
2024/04/05 12:11:08;;;;;;;;;;;;;;;;;;;;;
2024/04/05 12:16:47;;;;;;;1.92;1.05;;;16.40;99.90;;;;;;5003821;28;20435;-92
2024/04/05 12:19:35;;;;;;;2.30;0.98;;;16.40;99.90;;;;;;5001240;28;20425;-93
2024/04/05 12:22:03;;;;;;;3.15;1.15;;;16.40;99.90;;;;;;4980540;28;20466;-92
2024/04/05 12:24:30;;;;;;;3.35;1.20;;;16.40;99.90;;;;;;4980467;28;20081;-92
2024/04/05 12:26:56;;;;;;;2.28;1.20;;;16.30;99.90;;;;;;4980212;28;20023;-91
2024/04/05 12:29:22;;;;;;;3.50;1.45;;;16.30;99.90;;;;;;4979657;28;20052;-91
2024/04/05 12:31:50;;;;;;;2.47;1.10;;;16.30;99.90;;;;;;4982895;28;20121;-87
2024/04/05 12:34:24;;;;;;;2.08;1.10;;;16.30;99.90;;;;;;4980711;28;20019;-90
2024/04/05 12:36:54;;;;;;;3.95;1.30;;;16.20;99.90;;;;;;4955614;28;20065;-90
2024/04/05 12:39:28;;;;;;;3.05;1.40;;;16.20;99.90;;;;;;4997589;28;20033;-92
2024/04/05 12:41:55;;;;;;;4.40;1.55;;;16.30;99.90;;;;;;5001922;28;20056;-93
2024/04/05 12:44:22;;;;;;;4.20;1.30;;;16.30;99.90;;;;;;4990553;28;20022;-92
2024/04/05 12:46:51;;;;;;;1.42;0.95;;;16.30;99.90;;;;;;4980285;28;20072;-93
2024/04/05 12:49:17;;;;;;;3.75;1.40;;;16.30;99.90;;;;;;4997373;28;20029;-93
2024/04/05 12:51:43;;;;;;;1.67;1.10;;;16.40;99.90;;;;;;4978160;28;20367;-92
2024/04/05 12:54:14;;;;;;;3.22;1.20;;;16.40;99.90;;;;;;4991100;28;20085;-93
2024/04/05 12:56:40;;;;;;;;;;;16.50;99.90;;;;;;4980746;28;20030;-92
2024/04/05 12:59:06;;;;;;;2.90;1.20;;;16.50;99.90;;;;;;4995585;28;19917;-94
2024/04/05 13:01:33;;;;;;;1.55;0.90;;;16.50;99.90;;;;;;4981086;28;20030;-93
2024/04/05 13:03:59;;;;;;;2.00;1.10;;;16.60;99.90;;;;;;4965357;28;20115;-92
2024/04/05 13:06:25;;;;;;;3.55;1.30;;;16.60;99.90;;;;;;4979835;28;20085;-95
2024/04/05 13:08:51;;;;;;;1.42;0.90;;;16.70;99.90;;;;;;4978828;28;20027;-93
2024/04/05 13:11:19;;;;;;;2.08;1.17;;;16.80;99.90;;;;;;4979883;28;20022;-92
2024/04/05 13:13:55;;;;;;;;;;;;;;;;;;;;;
2024/04/05 13:16:25;;;;;;;2.58;1.40;;;16.80;99.90;;;;;;4998035;28;20030;-95
2024/04/05 13:19:19;;;;;;;2.47;1.10;;;16.90;99.90;;;;;;4980400;28;20062;-94
2024/04/05 13:21:47;;;;;;;3.05;1.13;;;16.90;99.90;;;;;;4966467;28;20137;-94
2024/04/05 13:24:27;;;;;;;3.30;1.20;;;16.90;99.90;;;;;;4999475;28;20034;-92
2024/04/05 13:26:56;;;;;;;3.13;1.25;;;16.90;99.90;;;;;;4998090;28;20525;-94
2024/04/05 13:29:27;;;;;;;3.25;1.00;;;16.90;99.90;;;;;;4980172;28;20038;-91
2024/04/05 13:31:59;;;;;;;2.35;1.20;;;16.90;99.90;;;;;;4980358;28;20034;-94
2024/04/05 13:34:31;;;;;;;3.53;1.52;;;16.90;99.90;;;;;;4991450;28;20434;-92
2024/04/05 13:36:59;;;;;;;3.50;1.42;;;16.80;99.90;;;;;;5017731;28;20056;-91
2024/04/05 13:39:25;;;;;;;3.22;1.35;;;16.80;99.90;;;;;;4990566;28;20029;-92
2024/04/05 13:41:51;;;;;;;2.72;1.40;;;16.80;99.90;;;;;;4993230;28;20037;-93
2024/04/05 13:44:16;;;;;;;2.75;1.38;;;16.80;99.90;;;;;;5000040;28;20034;-92
2024/04/05 13:46:42;;;;;;;1.83;1.13;;;16.80;99.90;;;;;;5000937;28;20069;-93
2024/04/05 13:49:13;;;;;;;4.28;2.08;;;16.80;99.90;;;;;;4978512;28;20026;-93
2024/04/05 13:51:42;;;;;;;3.15;1.52;;;16.80;99.90;;;;;;4982069;28;20027;-92
2024/04/05 13:54:11;;;;;;;1.73;1.13;;;16.70;99.90;;;;;;4987220;28;20478;-91
2024/04/05 13:56:38;;;;;;;1.98;1.35;;;16.80;99.90;;;;;;5015262;28;20030;-91
2024/04/05 13:59:04;;;;;;;2.72;1.45;;;16.70;99.90;;;;;;4977097;28;20298;-93
2024/04/05 14:01:30;;;;;;;3.75;1.30;;;16.70;99.90;;;;;;4977982;28;20109;-92
2024/04/05 14:03:55;;;;;;;2.80;1.10;;;16.80;99.90;;;;;;4988870;28;20057;-93
2024/04/05 14:06:21;;;;;;;2.13;1.10;;;16.80;99.90;;;;;;4995630;28;20018;-88
2024/04/05 14:08:49;;;;;;;4.53;1.55;;;16.90;99.90;;;;;;4975322;28;20029;-91
2024/04/05 14:11:16;;;;;;;3.15;1.70;;;16.90;99.90;;;;;;4968293;28;20033;-92
2024/04/05 14:13:43;;;;;;;2.38;1.30;;;16.90;99.90;;;;;;4979258;28;20121;-91
2024/04/05 14:16:14;;;;;;;3.53;1.50;;;17.00;99.90;;;;;;4988617;28;20029;-93
2024/04/05 14:18:42;;;;;;;2.92;1.35;;;17.00;99.90;;;;;;4993054;28;20084;-91
2024/04/05 14:21:11;;;;;;;4.03;1.65;;;17.00;99.90;;;;;;4978179;28;20057;-91
2024/04/05 14:23:37;;;;;;;3.20;1.27;;;17.10;99.90;;;;;;4995432;28;20446;-92
2024/04/05 14:26:16;;;;;;;3.17;1.70;;;17.10;99.90;;;;;;4978191;28;20044;-90
2024/04/05 14:28:47;;;;;;;2.67;1.42;;;17.10;99.90;;;;;;4980385;28;20662;-90
2024/04/05 14:31:13;;;;;;;2.88;1.48;;;17.10;99.90;;;;;;4961341;28;20458;-91
2024/04/05 14:33:52;;;;;;;;;;;;;;;;;;;;;
2024/04/05 14:36:18;;;;;;;3.42;1.38;;;17.20;99.90;;;;;;4978570;28;20474;-91